createdAt,value
2019-02-17T00:00:26.314Z,72.30
2019-02-17T00:02:54.770Z,72.60
2019-02-17T00:05:23.259Z,71.80
2019-02-17T00:07:51.786Z,72.10
2019-02-17T00:10:20.327Z,72.30
2019-02-17T00:12:48.800Z,72.40
2019-02-17T00:15:18.074Z,72.20
2019-02-17T00:17:46.529Z,71.60
2019-02-17T00:20:14.951Z,70.90
2019-02-17T00:22:43.430Z,70.10
2019-02-17T00:25:11.961Z,70.10
2019-02-17T00:27:40.418Z,70.60
2019-02-17T00:30:12.772Z,71.10
2019-02-17T00:32:41.275Z,71.60
2019-02-17T00:35:10.171Z,71.40
2019-02-17T00:37:38.597Z,70.80
2019-02-17T00:40:08.196Z,70.90
2019-02-17T00:42:37.114Z,71.00
2019-02-17T00:45:07.527Z,71.10
2019-02-17T00:47:36.003Z,71.10
2019-02-17T00:50:06.783Z,71.60
2019-02-17T00:52:35.218Z,70.90
2019-02-17T00:55:04.438Z,71.00
2019-02-17T00:57:32.869Z,71.80
2019-02-17T01:00:01.346Z,72.00
2019-02-17T01:02:29.794Z,72.20
2019-02-17T01:04:58.243Z,72.10
2019-02-17T01:07:26.911Z,71.60
2019-02-17T01:09:55.383Z,71.40
2019-02-17T01:12:23.803Z,70.70
2019-02-17T01:14:52.263Z,71.10
2019-02-17T01:17:20.699Z,71.20
2019-02-17T01:19:49.151Z,71.10
2019-02-17T01:22:18.882Z,72.20
2019-02-17T01:24:47.395Z,72.70
2019-02-17T01:27:15.827Z,72.30
2019-02-17T01:29:44.287Z,72.00
2019-02-17T01:32:12.733Z,72.40
2019-02-17T01:34:41.179Z,71.90
2019-02-17T01:37:09.602Z,71.50
2019-02-17T01:39:38.046Z,71.60
2019-02-17T01:42:06.478Z,71.00
2019-02-17T01:44:34.927Z,71.00
2019-02-17T01:47:03.371Z,71.50
2019-02-17T01:49:31.821Z,72.00
2019-02-17T01:52:00.520Z,71.80
2019-02-17T01:54:28.990Z,71.50
2019-02-17T01:56:57.492Z,71.70
2019-02-17T01:59:30.600Z,71.40
2019-02-17T02:01:56.080Z,71.40
2019-02-17T02:04:24.546Z,71.60
2019-02-17T02:06:52.988Z,71.70
2019-02-17T02:09:21.412Z,71.10
2019-02-17T02:11:49.927Z,70.90
2019-02-17T02:14:18.367Z,70.50
2019-02-17T02:16:46.802Z,69.90
2019-02-17T02:19:15.235Z,69.90
2019-02-17T02:21:43.691Z,70.60
2019-02-17T02:24:12.115Z,70.60
2019-02-17T02:26:40.590Z,70.00
2019-02-17T02:29:09.022Z,69.90
2019-02-17T02:31:37.454Z,70.00
2019-02-17T02:34:05.897Z,70.60
2019-02-17T02:36:34.418Z,70.90
2019-02-17T02:39:04.214Z,70.90
2019-02-17T02:41:34.982Z,70.60
2019-02-17T02:44:02.874Z,70.50
2019-02-17T02:46:31.327Z,70.10
2019-02-17T02:48:59.777Z,71.00
2019-02-17T02:51:28.213Z,71.20
2019-02-17T02:53:56.635Z,71.40
2019-02-17T02:56:25.107Z,70.20
2019-02-17T02:58:53.539Z,70.50
2019-02-17T03:01:21.984Z,70.30
2019-02-17T03:03:50.421Z,70.10
2019-02-17T03:06:23.330Z,70.60
2019-02-17T03:08:51.765Z,70.60
2019-02-17T03:11:20.192Z,70.60
2019-02-17T03:13:48.640Z,71.20
2019-02-17T03:16:17.077Z,71.30
2019-02-17T03:18:45.548Z,71.90
2019-02-17T03:21:13.975Z,72.10
2019-02-17T03:23:42.422Z,72.30
2019-02-17T03:26:10.853Z,71.80
2019-02-17T03:28:39.302Z,71.70
2019-02-17T03:31:07.729Z,71.70
2019-02-17T03:33:36.174Z,71.50
2019-02-17T03:36:04.598Z,71.80
2019-02-17T03:38:33.062Z,72.00
2019-02-17T03:41:01.827Z,72.10
2019-02-17T03:43:30.268Z,72.10
2019-02-17T03:45:58.727Z,71.70
2019-02-17T03:48:27.152Z,72.00
2019-02-17T03:50:55.591Z,72.40
2019-02-17T03:53:24.057Z,72.20
2019-02-17T03:55:52.486Z,71.60
2019-02-17T03:58:20.937Z,71.40
2019-02-17T04:00:49.361Z,70.90
2019-02-17T04:03:17.829Z,70.80
2019-02-17T04:05:46.265Z,70.30
2019-02-17T04:08:14.695Z,70.40
2019-02-17T04:10:43.138Z,70.50
2019-02-17T04:13:11.563Z,70.20
2019-02-17T04:15:40.021Z,70.50
2019-02-17T04:18:08.437Z,70.70
2019-02-17T04:20:36.904Z,70.20
2019-02-17T04:23:05.368Z,70.40
2019-02-17T04:25:33.855Z,70.60
2019-02-17T04:28:02.351Z,70.30
2019-02-17T04:30:30.778Z,70.10
2019-02-17T04:32:59.207Z,69.70
2019-02-17T04:35:27.735Z,69.60
2019-02-17T04:37:56.160Z,69.70
2019-02-17T04:40:24.620Z,70.00
2019-02-17T04:47:49.281Z,72.40
2019-02-17T04:50:17.727Z,69.40
2019-02-17T04:52:46.152Z,69.00
2019-02-17T04:55:14.607Z,68.70
2019-02-17T04:57:43.030Z,68.50
2019-02-17T05:00:11.627Z,68.50
2019-02-17T05:02:40.064Z,68.10
2019-02-17T05:05:08.802Z,68.00
2019-02-17T05:07:37.281Z,68.50
2019-02-17T05:10:06.530Z,68.70
2019-02-17T05:12:34.991Z,68.70
2019-02-17T05:15:03.898Z,68.90
2019-02-17T05:17:32.343Z,69.10
2019-02-17T05:20:00.772Z,68.80
2019-02-17T05:22:29.234Z,69.10
2019-02-17T05:24:57.646Z,69.00
2019-02-17T05:27:26.118Z,68.70
2019-02-17T05:29:54.692Z,68.60
2019-02-17T05:32:23.136Z,68.80
2019-02-17T05:34:51.576Z,68.70
2019-02-17T05:37:20.031Z,68.70
2019-02-17T05:39:48.450Z,68.70
2019-02-17T05:42:16.915Z,68.80
2019-02-17T05:44:45.340Z,68.80
2019-02-17T05:47:13.854Z,68.80
2019-02-17T05:49:42.281Z,68.80
2019-02-17T05:52:10.752Z,69.20
2019-02-17T05:54:39.256Z,69.50
2019-02-17T05:57:07.695Z,69.40
2019-02-17T05:59:36.135Z,69.30
2019-02-17T06:02:04.563Z,69.10
2019-02-17T06:04:33.023Z,68.50
2019-02-17T06:07:01.452Z,68.70
2019-02-17T06:09:30.967Z,68.30
2019-02-17T06:11:59.438Z,68.40
2019-02-17T06:14:27.888Z,68.40
2019-02-17T06:16:56.327Z,68.60
2019-02-17T06:19:24.966Z,69.00
2019-02-17T06:21:53.391Z,69.00
2019-02-17T06:24:21.839Z,69.00
2019-02-17T06:26:50.262Z,69.30
2019-02-17T06:29:18.722Z,69.50
2019-02-17T06:31:47.149Z,69.70
2019-02-17T06:34:15.590Z,70.00
2019-02-17T06:36:44.037Z,71.00
2019-02-17T06:39:12.473Z,71.80
2019-02-17T06:41:40.889Z,72.40
2019-02-17T06:44:09.343Z,72.80
2019-02-17T06:46:39.408Z,72.60
2019-02-17T06:49:07.840Z,72.60
2019-02-17T06:51:36.282Z,72.50
2019-02-17T06:54:04.708Z,73.00
2019-02-17T06:56:40.819Z,73.70
2019-02-17T06:59:09.249Z,75.00
2019-02-17T07:01:37.703Z,76.60
2019-02-17T07:04:06.215Z,77.60
2019-02-17T07:06:36.321Z,78.00
2019-02-17T07:09:06.227Z,78.40
2019-02-17T07:11:34.673Z,78.20
2019-02-17T07:14:04.639Z,78.10
2019-02-17T07:16:33.087Z,78.10
2019-02-17T07:19:01.519Z,78.30
2019-02-17T07:21:30.079Z,78.40
2019-02-17T07:23:58.603Z,78.60
2019-02-17T07:26:27.048Z,78.70
2019-02-17T07:28:55.479Z,78.60
2019-02-17T07:31:23.932Z,78.80
2019-02-17T07:33:52.370Z,78.60
2019-02-17T07:36:22.042Z,78.80
2019-02-17T07:38:50.692Z,79.20
2019-02-17T07:41:19.233Z,79.50
2019-02-17T07:43:47.674Z,79.90
2019-02-17T07:46:16.115Z,79.90
2019-02-17T07:48:44.547Z,79.90
2019-02-17T07:51:12.994Z,79.90
2019-02-17T07:53:41.522Z,80.20
2019-02-17T07:56:09.975Z,80.40
2019-02-17T07:58:38.428Z,80.50
2019-02-17T08:01:07.386Z,80.60
2019-02-17T08:03:35.942Z,80.50
2019-02-17T08:06:04.448Z,80.60
2019-02-17T08:08:32.890Z,80.60
2019-02-17T08:11:03.930Z,80.70
2019-02-17T08:13:31.583Z,80.50
2019-02-17T08:16:00.007Z,80.00
2019-02-17T08:18:28.451Z,79.50
2019-02-17T08:20:56.885Z,79.10
2019-02-17T08:23:25.342Z,78.70
2019-02-17T08:25:53.776Z,79.10
2019-02-17T08:28:22.227Z,79.30
2019-02-17T08:30:50.651Z,79.30
2019-02-17T08:33:19.107Z,78.90
2019-02-17T08:35:47.559Z,79.10
2019-02-17T08:38:15.991Z,78.60
2019-02-17T08:40:44.423Z,78.30
2019-02-17T08:43:12.894Z,76.90
2019-02-17T08:45:41.325Z,74.30
2019-02-17T08:48:09.791Z,72.00
2019-02-17T08:50:38.206Z,68.70
2019-02-17T08:53:06.671Z,65.90
2019-02-17T08:55:35.100Z,63.10
2019-02-17T08:58:03.535Z,62.20
2019-02-17T09:00:31.989Z,61.60
2019-02-17T09:03:00.398Z,62.60
2019-02-17T09:05:28.847Z,62.40
2019-02-17T09:07:57.283Z,61.10
2019-02-17T09:10:25.733Z,61.10
2019-02-17T09:12:54.181Z,60.70
2019-02-17T09:15:22.653Z,60.80
2019-02-17T09:17:51.160Z,58.30
2019-02-17T09:20:19.600Z,58.40
2019-02-17T09:22:48.098Z,56.90
2019-02-17T09:25:17.629Z,58.30
2019-02-17T09:27:46.059Z,58.40
2019-02-17T09:30:16.642Z,58.10
2019-02-17T09:32:45.084Z,58.50
2019-02-17T09:35:13.607Z,57.50
2019-02-17T09:37:42.026Z,58.50
2019-02-17T09:40:12.029Z,58.20
2019-02-17T09:42:40.462Z,58.10
2019-02-17T09:45:13.895Z,58.20
2019-02-17T09:47:42.327Z,22.80
2019-02-17T09:50:14.563Z,24.80
2019-02-17T09:52:42.990Z,26.30
2019-02-17T09:55:11.722Z,25.70
2019-02-17T09:57:40.164Z,22.70
2019-02-17T10:00:11.320Z,23.60
2019-02-17T10:02:39.905Z,25.80
2019-02-17T10:05:10.188Z,26.40
2019-02-17T10:07:38.640Z,22.70
2019-02-17T10:10:14.998Z,23.00
2019-02-17T10:12:43.471Z,26.00
2019-02-17T10:15:13.355Z,23.00
2019-02-17T10:17:41.861Z,23.30
2019-02-17T10:20:15.606Z,23.80
2019-02-17T10:22:44.070Z,23.30
2019-02-17T10:25:12.592Z,23.20
2019-02-17T10:27:41.037Z,24.10
2019-02-17T10:30:14.284Z,22.60
2019-02-17T10:32:42.815Z,22.70
2019-02-17T10:35:11.337Z,22.10
2019-02-17T10:37:39.786Z,22.00
2019-02-17T10:40:14.196Z,21.20
2019-02-17T10:42:42.654Z,21.60
2019-02-17T10:45:11.736Z,21.80
2019-02-17T10:47:40.183Z,22.20
2019-02-17T10:50:10.972Z,24.70
2019-02-17T10:52:39.439Z,22.40
2019-02-17T10:55:09.822Z,22.60
2019-02-17T10:57:38.275Z,23.90
2019-02-17T11:00:11.426Z,23.80
2019-02-17T11:02:46.716Z,25.00
2019-02-17T11:05:11.387Z,24.20
2019-02-17T11:07:39.857Z,24.10
2019-02-17T11:10:10.456Z,23.80
2019-02-17T11:12:38.945Z,23.60
2019-02-17T11:15:10.831Z,23.90
2019-02-17T11:17:39.399Z,24.30
2019-02-17T11:20:08.583Z,25.90
2019-02-17T11:22:37.030Z,25.70
2019-02-17T11:25:05.914Z,26.30
2019-02-17T11:27:34.359Z,27.70
2019-02-17T11:30:05.404Z,25.30
2019-02-17T11:32:33.622Z,26.50
2019-02-17T11:35:02.160Z,26.80
2019-02-17T11:37:30.568Z,26.40
2019-02-17T11:39:59.116Z,23.50
2019-02-17T11:42:27.578Z,23.40
2019-02-17T11:44:56.238Z,23.70
2019-02-17T11:47:24.935Z,23.80
2019-02-17T11:49:53.400Z,23.10
2019-02-17T11:52:21.837Z,23.50
2019-02-17T11:54:50.266Z,24.00
2019-02-17T11:57:18.722Z,23.70
2019-02-17T11:59:47.239Z,23.90
2019-02-17T12:02:24.641Z,24.50
2019-02-17T12:04:45.944Z,24.00
2019-02-17T12:07:14.378Z,24.40
2019-02-17T12:09:42.974Z,24.20
2019-02-17T12:12:13.612Z,24.00
2019-02-17T12:14:41.622Z,24.10
2019-02-17T12:17:10.078Z,25.30
2019-02-17T12:19:38.522Z,25.00
2019-02-17T12:22:08.636Z,24.40
2019-02-17T12:24:38.913Z,25.60
2019-02-17T12:27:09.146Z,24.40
2019-02-17T12:29:48.561Z,23.80
2019-02-17T12:32:18.802Z,23.40
2019-02-17T12:34:47.245Z,23.80
2019-02-17T12:37:15.698Z,23.80
2019-02-17T12:39:44.284Z,23.60
2019-02-17T12:42:12.844Z,23.60
2019-02-17T12:44:41.285Z,24.20
2019-02-17T12:47:09.739Z,24.10
2019-02-17T12:49:38.165Z,24.80
2019-02-17T12:52:06.639Z,24.00
2019-02-17T12:54:35.070Z,24.70
2019-02-17T12:57:03.607Z,25.20
2019-02-17T12:59:32.198Z,24.90
2019-02-17T13:02:00.660Z,23.50
2019-02-17T13:04:29.092Z,24.90
2019-02-17T13:06:57.547Z,25.20
2019-02-17T13:09:26.006Z,26.00
2019-02-17T13:11:54.430Z,23.90
2019-02-17T13:14:22.895Z,23.60
2019-02-17T13:16:51.331Z,23.00
2019-02-17T13:19:19.796Z,22.90
2019-02-17T13:21:48.314Z,23.30
2019-02-17T13:24:16.770Z,22.90
2019-02-17T13:26:45.210Z,22.90
2019-02-17T13:29:13.674Z,23.50
2019-02-17T13:31:42.111Z,23.50
2019-02-17T13:34:10.577Z,23.30
2019-02-17T13:36:39.005Z,23.60
2019-02-17T13:39:07.462Z,23.40
2019-02-17T13:41:35.880Z,22.50
2019-02-17T13:44:04.566Z,23.20
2019-02-17T13:46:32.996Z,23.60
2019-02-17T13:49:01.454Z,23.70
2019-02-17T13:51:29.882Z,24.00
2019-02-17T13:53:58.342Z,23.40
2019-02-17T13:56:26.780Z,23.20
2019-02-17T13:58:55.245Z,23.30
2019-02-17T14:01:23.673Z,22.70
2019-02-17T14:03:52.124Z,23.30
2019-02-17T14:06:20.564Z,23.10
2019-02-17T14:08:49.028Z,23.30
2019-02-17T14:11:17.498Z,23.20
2019-02-17T14:13:46.015Z,22.70
2019-02-17T14:16:14.442Z,22.90
2019-02-17T14:18:42.912Z,22.70
2019-02-17T14:21:11.354Z,22.30
2019-02-17T14:23:39.792Z,22.10
2019-02-17T14:26:08.589Z,21.70
2019-02-17T14:28:37.081Z,21.90
2019-02-17T14:31:06.532Z,22.00
2019-02-17T14:33:35.038Z,21.90
2019-02-17T14:36:03.663Z,21.50
2019-02-17T14:38:32.113Z,21.80
2019-02-17T14:41:00.573Z,21.90
2019-02-17T14:43:29.003Z,21.60
2019-02-17T14:45:57.469Z,21.60
2019-02-17T14:48:25.967Z,21.10
2019-02-17T14:50:54.447Z,20.80
2019-02-17T14:53:22.878Z,20.90
2019-02-17T14:55:51.364Z,20.70
2019-02-17T14:58:19.800Z,20.70
2019-02-17T15:00:48.280Z,20.70
2019-02-17T15:03:16.763Z,20.50
2019-02-17T15:05:45.219Z,20.60
2019-02-17T15:08:13.686Z,20.60
2019-02-17T15:10:42.119Z,20.60
2019-02-17T15:13:10.570Z,20.50
2019-02-17T15:15:39.031Z,20.60
2019-02-17T15:18:07.483Z,20.60
2019-02-17T15:20:35.920Z,20.40
2019-02-17T15:23:04.396Z,20.20
2019-02-17T15:25:32.833Z,20.30
2019-02-17T15:28:01.283Z,20.00
2019-02-17T15:30:29.739Z,20.10
2019-02-17T15:33:04.167Z,19.90
2019-02-17T15:35:28.536Z,20.00
2019-02-17T15:37:56.992Z,19.90
2019-02-17T15:40:25.489Z,19.80
2019-02-17T15:42:53.958Z,19.80
2019-02-17T15:45:22.394Z,19.70
2019-02-17T15:47:50.842Z,19.80
2019-02-17T15:50:19.274Z,19.60
2019-02-17T15:52:47.736Z,19.70
2019-02-17T15:55:16.157Z,19.70
2019-02-17T15:57:44.585Z,19.70
2019-02-17T16:00:18.014Z,19.70
2019-02-17T16:02:46.563Z,19.50
2019-02-17T16:05:15.068Z,19.40
2019-02-17T16:07:43.645Z,19.50
2019-02-17T16:10:16.481Z,19.30
2019-02-17T16:12:44.990Z,19.20
2019-02-17T16:15:19.109Z,21.10
2019-02-17T16:17:47.531Z,21.30
2019-02-17T16:20:16.048Z,21.50
2019-02-17T16:22:44.496Z,21.40
2019-02-17T16:25:13.029Z,21.40
2019-02-17T16:27:41.483Z,21.70
2019-02-17T16:30:20.151Z,21.80
2019-02-17T16:32:48.642Z,21.50
2019-02-17T16:35:17.153Z,22.00
2019-02-17T16:37:45.611Z,22.10
2019-02-17T16:40:16.402Z,22.10
2019-02-17T16:42:44.972Z,22.20
2019-02-17T16:45:16.466Z,22.20
2019-02-17T16:47:45.382Z,22.30
2019-02-17T16:50:24.998Z,22.20
2019-02-17T16:52:53.434Z,22.20
2019-02-17T16:55:21.951Z,22.30
2019-02-17T16:57:50.389Z,22.20
2019-02-17T17:00:23.367Z,22.30
2019-02-17T17:02:53.835Z,22.70
2019-02-17T17:05:23.310Z,22.60
2019-02-17T17:07:51.929Z,58.40
2019-02-17T17:10:20.616Z,58.30
2019-02-17T17:12:49.255Z,58.30
2019-02-17T17:15:18.102Z,58.30
2019-02-17T17:17:46.666Z,58.40
2019-02-17T17:20:22.327Z,58.70
2019-02-17T17:22:50.915Z,58.70
2019-02-17T17:25:19.721Z,58.50
2019-02-17T17:27:48.179Z,59.30
2019-02-17T17:30:18.617Z,59.10
2019-02-17T17:32:47.074Z,58.90
2019-02-17T17:35:15.560Z,59.50
2019-02-17T17:37:44.080Z,59.40
2019-02-17T17:40:14.725Z,59.60
2019-02-17T17:42:43.178Z,59.70
2019-02-17T17:45:16.832Z,60.00
2019-02-17T17:47:45.267Z,60.00
2019-02-17T17:50:15.030Z,60.10
2019-02-17T17:52:43.490Z,60.10
2019-02-17T17:55:13.182Z,60.10
2019-02-17T17:57:41.858Z,60.10
2019-02-17T18:00:16.505Z,60.30
2019-02-17T18:02:44.956Z,60.20
2019-02-17T18:05:13.638Z,60.20
2019-02-17T18:07:42.082Z,60.30
2019-02-17T18:10:12.763Z,60.40
2019-02-17T18:12:41.220Z,60.50
2019-02-17T18:15:12.188Z,60.80
2019-02-17T18:17:40.610Z,60.50
2019-02-17T18:20:12.234Z,60.80
2019-02-17T18:22:40.663Z,60.60
2019-02-17T18:25:11.579Z,61.00
2019-02-17T18:27:40.016Z,61.00
2019-02-17T18:30:11.688Z,61.00
2019-02-17T18:32:40.175Z,60.80
2019-02-17T18:35:18.830Z,61.20
2019-02-17T18:37:39.243Z,61.40
2019-02-17T18:40:18.285Z,61.40
2019-02-17T18:42:46.774Z,61.40
2019-02-17T18:45:16.376Z,61.50
2019-02-17T18:47:44.887Z,61.50
2019-02-17T18:50:17.522Z,61.90
2019-02-17T18:52:45.966Z,62.40
2019-02-17T18:55:14.939Z,62.30
2019-02-17T18:57:50.216Z,62.10
2019-02-17T19:00:16.456Z,62.20
2019-02-17T19:02:44.882Z,62.70
2019-02-17T19:05:13.456Z,62.50
2019-02-17T19:07:41.876Z,62.30
2019-02-17T19:10:14.647Z,62.50
2019-02-17T19:12:43.303Z,62.70
2019-02-17T19:15:14.266Z,62.70
2019-02-17T19:17:42.691Z,62.70
2019-02-17T19:20:14.132Z,62.90
2019-02-17T19:22:42.557Z,63.30
2019-02-17T19:25:11.036Z,63.10
2019-02-17T19:27:39.467Z,62.80
2019-02-17T19:30:15.513Z,63.30
2019-02-17T19:32:44.277Z,63.70
2019-02-17T19:35:14.572Z,63.60
2019-02-17T19:37:43.071Z,63.20
2019-02-17T19:40:13.365Z,63.20
2019-02-17T19:42:42.024Z,63.80
2019-02-17T19:45:15.425Z,65.00
2019-02-17T19:47:43.887Z,65.00
2019-02-17T19:50:13.972Z,65.00
2019-02-17T19:52:42.435Z,65.60
2019-02-17T19:55:12.187Z,65.90
2019-02-17T19:57:40.705Z,65.90
2019-02-17T20:00:12.325Z,65.40
2019-02-17T20:03:00.308Z,65.10
2019-02-17T20:05:30.448Z,65.40
2019-02-17T20:07:58.935Z,65.70
2019-02-17T20:10:27.471Z,65.90
2019-02-17T20:12:56.387Z,66.30
2019-02-17T20:15:26.552Z,66.20
2019-02-17T20:17:55.046Z,65.80
2019-02-17T20:20:23.550Z,64.90
2019-02-17T20:22:52.007Z,64.60
2019-02-17T20:25:20.439Z,65.10
2019-02-17T20:27:48.908Z,65.60
2019-02-17T20:30:17.350Z,66.10
2019-02-17T20:32:45.824Z,65.70
2019-02-17T20:35:14.314Z,66.20
2019-02-17T20:37:42.755Z,66.50
2019-02-17T20:40:16.062Z,65.60
2019-02-17T20:42:44.499Z,65.80
2019-02-17T20:45:13.209Z,66.20
2019-02-17T20:47:41.650Z,66.00
2019-02-17T20:50:12.818Z,66.60
2019-02-17T20:52:41.263Z,66.60
2019-02-17T20:55:11.468Z,65.90
2019-02-17T20:57:39.893Z,65.40
2019-02-17T21:00:13.549Z,66.20
2019-02-17T21:02:42.104Z,67.00
2019-02-17T21:05:11.099Z,67.90
2019-02-17T21:07:39.550Z,68.00
2019-02-17T21:10:10.526Z,67.70
2019-02-17T21:12:39.103Z,67.20
2019-02-17T21:15:16.509Z,67.30
2019-02-17T21:17:44.945Z,68.10
2019-02-17T21:20:13.683Z,68.60
2019-02-17T21:22:42.114Z,68.20
2019-02-17T21:25:12.114Z,68.30
2019-02-17T21:27:40.617Z,68.20
2019-02-17T21:30:14.735Z,68.00
2019-02-17T21:32:43.240Z,68.40
2019-02-17T21:35:13.632Z,67.90
2019-02-17T21:37:42.063Z,67.60
2019-02-17T21:40:12.462Z,67.60
2019-02-17T21:42:40.951Z,68.00
2019-02-17T21:45:13.687Z,68.30
2019-02-17T21:47:42.186Z,68.20
2019-02-17T21:50:14.588Z,68.30
2019-02-17T21:52:43.083Z,68.70
2019-02-17T21:55:12.888Z,69.40
2019-02-17T21:57:41.390Z,69.90
2019-02-17T22:00:20.604Z,69.30
2019-02-17T22:02:49.091Z,69.70
2019-02-17T22:05:17.611Z,69.50
2019-02-17T22:07:46.038Z,68.70
2019-02-17T22:10:16.508Z,68.60
2019-02-17T22:12:44.994Z,68.40
2019-02-17T22:15:18.015Z,69.00
2019-02-17T22:17:46.459Z,69.40
2019-02-17T22:20:15.159Z,69.90
2019-02-17T22:22:43.670Z,69.80
2019-02-17T22:25:13.934Z,69.60
2019-02-17T22:27:42.400Z,69.60
2019-02-17T22:30:13.912Z,69.90
2019-02-17T22:32:42.427Z,69.90
2019-02-17T22:35:11.091Z,69.20
2019-02-17T22:37:39.579Z,69.00
2019-02-17T22:40:14.878Z,68.90
2019-02-17T22:42:43.341Z,69.20
2019-02-17T22:45:12.635Z,69.20
2019-02-17T22:47:41.283Z,69.20
2019-02-17T22:50:14.362Z,69.80
2019-02-17T22:52:44.150Z,69.70
2019-02-17T22:55:13.528Z,69.40
2019-02-17T22:57:42.077Z,69.80
2019-02-17T23:00:30.383Z,69.80
2019-02-17T23:02:59.019Z,70.70
2019-02-17T23:05:27.443Z,71.40
2019-02-17T23:07:55.914Z,71.90
2019-02-17T23:10:24.417Z,72.10
2019-02-17T23:12:52.843Z,72.50
2019-02-17T23:15:21.284Z,72.00
2019-02-17T23:17:49.735Z,72.60
2019-02-17T23:20:18.174Z,72.30
2019-02-17T23:22:46.626Z,72.40
2019-02-17T23:25:15.294Z,71.90
2019-02-17T23:27:43.737Z,71.60
2019-02-17T23:30:12.322Z,71.10
2019-02-17T23:32:40.747Z,71.20
2019-02-17T23:35:09.198Z,71.50
2019-02-17T23:37:37.622Z,71.10
2019-02-17T23:40:09.167Z,70.70
2019-02-17T23:42:37.665Z,70.40
2019-02-17T23:45:08.719Z,70.40
2019-02-17T23:47:37.165Z,70.70
2019-02-17T23:50:07.940Z,70.80
2019-02-17T23:52:36.367Z,71.20
2019-02-17T23:55:05.255Z,71.90
2019-02-17T23:57:33.682Z,72.00
